createdAt,value
2019-05-02T00:01:31.314Z,21.50
2019-05-02T00:03:57.892Z,20.97
2019-05-02T00:06:24.741Z,21.83
2019-05-02T00:08:51.107Z,21.27
2019-05-02T00:11:17.956Z,21.90
2019-05-02T00:13:44.436Z,19.60
2019-05-02T00:16:14.175Z,20.50
2019-05-02T00:18:39.249Z,20.87
2019-05-02T00:21:06.897Z,21.87
2019-05-02T00:23:33.371Z,20.93
2019-05-02T00:25:59.742Z,21.03
2019-05-02T00:28:26.451Z,21.23
2019-05-02T00:30:52.904Z,22.03
2019-05-02T00:33:19.373Z,20.53
2019-05-02T00:35:47.352Z,21.30
2019-05-02T00:38:14.088Z,21.83
2019-05-02T00:40:40.536Z,21.93
2019-05-02T00:43:06.921Z,22.17
2019-05-02T00:45:33.279Z,22.53
2019-05-02T00:48:01.559Z,22.70
2019-05-02T00:50:29.816Z,23.57
2019-05-02T00:52:56.270Z,23.40
2019-05-02T00:55:22.618Z,21.73
2019-05-02T00:57:50.911Z,21.87
2019-05-02T01:00:18.438Z,21.53
2019-05-02T01:02:47.687Z,20.30
2019-05-02T01:05:14.135Z,22.00
2019-05-02T01:07:40.599Z,20.20
2019-05-02T01:10:08.155Z,20.90
2019-05-02T01:12:34.564Z,20.77
2019-05-02T01:15:03.192Z,21.43
2019-05-02T01:17:30.989Z,22.73
2019-05-02T01:19:57.644Z,21.23
2019-05-02T01:22:24.096Z,21.30
2019-05-02T01:24:50.471Z,20.63
2019-05-02T01:27:19.115Z,21.20
2019-05-02T01:29:47.492Z,21.50
2019-05-02T01:32:15.843Z,22.07
2019-05-02T01:34:48.927Z,20.77
2019-05-02T01:37:20.796Z,21.97
2019-05-02T01:39:46.086Z,22.00
2019-05-02T01:42:12.445Z,23.33
2019-05-02T01:44:38.908Z,22.43
2019-05-02T01:47:05.359Z,22.27
2019-05-02T01:49:31.722Z,22.00
2019-05-02T01:51:58.275Z,22.47
2019-05-02T01:54:24.744Z,23.03
2019-05-02T01:56:51.096Z,23.00
2019-05-02T01:59:17.734Z,22.43
2019-05-02T02:01:44.357Z,22.63
2019-05-02T02:04:10.724Z,21.60
2019-05-02T02:06:38.771Z,22.83
2019-05-02T02:09:08.424Z,23.27
2019-05-02T02:11:35.869Z,22.60
2019-05-02T02:14:07.395Z,21.30
2019-05-02T02:16:35.257Z,22.20
2019-05-02T02:19:03.958Z,21.83
2019-05-02T02:21:32.028Z,21.83
2019-05-02T02:23:59.480Z,23.00
2019-05-02T02:26:25.867Z,22.20
2019-05-02T02:28:52.359Z,21.60
2019-05-02T02:31:19.331Z,21.53
2019-05-02T02:33:47.566Z,22.00
2019-05-02T02:36:14.257Z,22.33
2019-05-02T02:38:40.604Z,21.70
2019-05-02T02:41:12.971Z,22.43
2019-05-02T02:43:35.355Z,22.27
2019-05-02T02:46:03.756Z,21.63
2019-05-02T02:48:33.521Z,21.60
2019-05-02T02:50:59.571Z,21.97
2019-05-02T02:53:27.846Z,23.63
2019-05-02T02:56:01.195Z,21.03
2019-05-02T02:58:22.675Z,21.77
2019-05-02T03:00:49.370Z,20.90
2019-05-02T03:03:20.641Z,21.33
2019-05-02T03:05:44.369Z,20.63
2019-05-02T03:08:10.921Z,21.67
2019-05-02T03:10:44.968Z,21.43
2019-05-02T03:13:08.391Z,21.33
2019-05-02T03:15:36.779Z,22.60
2019-05-02T03:18:03.232Z,23.27
2019-05-02T03:20:40.083Z,20.90
2019-05-02T03:22:57.961Z,21.87
2019-05-02T03:25:24.998Z,22.17
2019-05-02T03:27:52.931Z,21.57
2019-05-02T03:30:31.644Z,23.03
2019-05-02T03:33:02.499Z,22.60
2019-05-02T03:35:18.871Z,22.87
2019-05-02T03:37:44.720Z,23.50
2019-05-02T03:40:12.726Z,23.50
2019-05-02T03:42:44.740Z,24.77
2019-05-02T03:45:10.154Z,23.90
2019-05-02T03:47:43.014Z,22.63
2019-05-02T03:50:08.679Z,21.43
2019-05-02T03:52:36.796Z,21.40
2019-05-02T03:55:03.917Z,22.07
2019-05-02T03:57:33.336Z,21.90
2019-05-02T04:00:00.740Z,22.30
2019-05-02T04:02:27.311Z,23.27
2019-05-02T04:05:00.720Z,24.10
2019-05-02T04:07:23.131Z,21.80
2019-05-02T04:09:49.584Z,21.67
2019-05-02T04:12:21.695Z,22.83
2019-05-02T04:14:44.525Z,22.57
2019-05-02T04:17:10.998Z,22.77
2019-05-02T04:19:39.069Z,22.67
2019-05-02T04:22:09.474Z,22.47
2019-05-02T04:24:34.498Z,24.63
2019-05-02T04:27:00.991Z,23.03
2019-05-02T04:29:31.117Z,22.67
2019-05-02T04:31:55.745Z,22.47
2019-05-02T04:34:25.448Z,21.90
2019-05-02T04:36:59.763Z,22.77
2019-05-02T04:39:21.621Z,22.77
2019-05-02T04:41:48.677Z,22.03
2019-05-02T04:44:15.299Z,22.97
2019-05-02T04:46:41.749Z,21.83
2019-05-02T04:49:09.197Z,23.50
2019-05-02T04:51:38.201Z,22.83
2019-05-02T04:54:04.260Z,22.87
2019-05-02T04:56:30.724Z,22.27
2019-05-02T04:59:01.362Z,22.73
2019-05-02T05:01:33.147Z,23.90
2019-05-02T05:04:02.219Z,22.70
2019-05-02T05:06:22.274Z,22.53
2019-05-02T05:08:48.849Z,23.40
2019-05-02T05:11:21.306Z,24.53
2019-05-02T05:13:44.591Z,22.43
2019-05-02T05:16:15.542Z,19.43
2019-05-02T05:18:39.507Z,20.83
2019-05-02T05:21:10.239Z,19.13
2019-05-02T05:23:37.769Z,18.60
2019-05-02T05:26:04.814Z,18.87
2019-05-02T05:28:35.166Z,17.77
2019-05-02T05:30:59.711Z,17.33
2019-05-02T05:33:27.938Z,18.97
2019-05-02T05:35:54.419Z,19.23
2019-05-02T05:38:23.025Z,18.67
2019-05-02T05:40:50.255Z,19.33
2019-05-02T05:43:20.352Z,20.30
2019-05-02T05:45:53.355Z,18.57
2019-05-02T05:48:13.962Z,18.83
2019-05-02T05:50:41.525Z,19.93
2019-05-02T05:53:08.110Z,21.10
2019-05-02T05:55:38.188Z,20.70
2019-05-02T05:58:12.138Z,21.73
2019-05-02T06:00:33.176Z,22.00
2019-05-02T06:03:10.123Z,19.67
2019-05-02T06:05:27.969Z,21.10
2019-05-02T06:07:54.415Z,20.57
2019-05-02T06:10:20.787Z,21.23
2019-05-02T06:12:47.134Z,19.93
2019-05-02T06:15:13.633Z,19.73
2019-05-02T06:17:40.095Z,20.07
2019-05-02T06:20:06.846Z,18.73
2019-05-02T06:22:33.779Z,19.40
2019-05-02T06:25:02.145Z,19.43
2019-05-02T06:27:30.470Z,18.83
2019-05-02T06:29:57.386Z,17.27
2019-05-02T06:32:24.006Z,17.30
2019-05-02T06:34:50.575Z,16.70
2019-05-02T06:37:16.951Z,16.27
2019-05-02T06:39:43.414Z,16.17
2019-05-02T06:42:09.967Z,16.00
2019-05-02T06:44:36.415Z,15.73
2019-05-02T06:47:04.262Z,15.80
2019-05-02T06:49:31.228Z,14.30
2019-05-02T06:51:57.788Z,13.77
2019-05-02T06:54:24.170Z,12.82
2019-05-02T06:56:50.747Z,12.27
2019-05-02T06:59:18.533Z,13.57
2019-05-02T07:01:45.664Z,12.77
2019-05-02T07:04:12.215Z,12.83
2019-05-02T07:06:50.140Z,13.20
2019-05-02T07:09:07.109Z,13.00
2019-05-02T07:11:38.949Z,11.33
2019-05-02T07:14:12.486Z,11.75
2019-05-02T07:16:38.559Z,10.88
2019-05-02T07:19:02.487Z,11.05
2019-05-02T07:21:29.197Z,11.03
2019-05-02T07:23:55.747Z,12.53
2019-05-02T07:26:23.362Z,11.15
2019-05-02T07:28:49.891Z,11.38
2019-05-02T07:31:16.365Z,10.93
2019-05-02T07:33:42.712Z,10.63
2019-05-02T07:36:09.159Z,10.78
2019-05-02T07:38:35.531Z,11.08
2019-05-02T07:41:02.006Z,11.30
2019-05-02T07:43:28.572Z,10.63
2019-05-02T07:45:55.014Z,10.30
2019-05-02T07:48:21.591Z,9.38
2019-05-02T07:50:48.150Z,9.60
2019-05-02T07:53:14.811Z,9.45
2019-05-02T07:55:42.733Z,9.60
2019-05-02T07:58:09.343Z,10.18
2019-05-02T08:00:37.104Z,9.08
2019-05-02T08:03:05.143Z,9.65
2019-05-02T08:05:31.831Z,11.22
2019-05-02T08:07:58.299Z,10.35
2019-05-02T08:10:24.899Z,11.30
2019-05-02T08:12:51.294Z,10.55
2019-05-02T08:15:17.629Z,11.43
2019-05-02T08:17:43.999Z,12.18
2019-05-02T08:20:13.585Z,12.47
2019-05-02T08:22:38.898Z,11.38
2019-05-02T08:25:10.407Z,12.68
2019-05-02T08:27:36.747Z,13.20
2019-05-02T08:30:05.905Z,12.00
2019-05-02T08:32:32.360Z,12.23
2019-05-02T08:34:58.943Z,14.00
2019-05-02T08:37:25.496Z,13.98
2019-05-02T08:39:51.963Z,12.50
2019-05-02T08:42:18.520Z,13.25
2019-05-02T08:44:51.327Z,13.75
2019-05-02T08:47:19.100Z,13.60
2019-05-02T08:49:42.585Z,14.83
2019-05-02T08:52:09.167Z,13.72
2019-05-02T08:54:35.635Z,14.00
2019-05-02T08:57:02.216Z,13.43
2019-05-02T08:59:28.684Z,13.80
2019-05-02T09:01:55.132Z,13.65
2019-05-02T09:04:24.101Z,15.30
2019-05-02T09:06:53.316Z,14.55
2019-05-02T09:09:22.823Z,16.70
2019-05-02T09:12:01.009Z,14.00
2019-05-02T09:14:14.991Z,13.68
2019-05-02T09:16:42.750Z,13.25
2019-05-02T09:19:15.240Z,13.00
2019-05-02T09:21:37.599Z,14.28
2019-05-02T09:24:08.367Z,13.72
2019-05-02T09:26:38.379Z,13.70
2019-05-02T09:29:03.929Z,12.95
2019-05-02T09:31:28.975Z,13.15
2019-05-02T09:33:55.800Z,14.10
2019-05-02T09:36:22.654Z,12.58
2019-05-02T09:38:53.973Z,12.37
2019-05-02T09:41:19.418Z,12.18
2019-05-02T09:43:45.910Z,11.83
2019-05-02T09:46:16.489Z,11.55
2019-05-02T09:48:42.523Z,12.20
2019-05-02T09:51:12.762Z,13.78
2019-05-02T09:53:37.170Z,13.38
2019-05-02T09:56:03.735Z,10.50
2019-05-02T09:58:31.970Z,9.33
2019-05-02T10:01:02.021Z,10.53
2019-05-02T10:03:28.642Z,11.28
2019-05-02T10:05:55.013Z,9.95
2019-05-02T10:08:22.927Z,9.43
2019-05-02T10:10:49.676Z,9.13
2019-05-02T10:13:16.119Z,10.60
2019-05-02T10:15:42.591Z,10.82
2019-05-02T10:18:13.636Z,10.03
2019-05-02T10:20:37.403Z,9.33
2019-05-02T10:23:04.066Z,10.35
2019-05-02T10:25:38.303Z,9.50
2019-05-02T10:27:59.035Z,9.10
2019-05-02T10:30:27.527Z,10.35
2019-05-02T10:32:57.256Z,10.25
2019-05-02T10:35:28.048Z,9.70
2019-05-02T10:37:52.814Z,9.55
2019-05-02T10:40:19.198Z,10.25
2019-05-02T10:42:45.651Z,11.20
2019-05-02T10:45:16.471Z,12.05
2019-05-02T10:47:42.244Z,12.70
2019-05-02T10:50:11.697Z,12.55
2019-05-02T10:52:38.103Z,10.85
2019-05-02T10:55:05.061Z,11.05
2019-05-02T10:57:32.645Z,10.23
2019-05-02T10:59:59.111Z,9.90
2019-05-02T11:02:27.409Z,9.68
2019-05-02T11:04:55.660Z,12.55
2019-05-02T11:07:26.186Z,12.37
2019-05-02T11:09:52.423Z,11.20
2019-05-02T11:12:21.775Z,11.28
2019-05-02T11:14:51.699Z,10.48
2019-05-02T11:17:20.082Z,13.35
2019-05-02T11:19:48.331Z,11.20
2019-05-02T11:22:14.718Z,11.30
2019-05-02T11:24:41.812Z,10.32
2019-05-02T11:27:08.384Z,11.03
2019-05-02T11:29:34.736Z,10.95
2019-05-02T11:32:02.789Z,11.33
2019-05-02T11:34:29.365Z,10.45
2019-05-02T11:36:55.849Z,11.68
2019-05-02T11:39:31.181Z,13.75
2019-05-02T11:41:52.574Z,12.90
2019-05-02T11:44:19.041Z,12.07
2019-05-02T11:46:47.092Z,10.78
2019-05-02T11:49:13.588Z,11.70
2019-05-02T11:51:41.630Z,12.68
2019-05-02T11:54:09.474Z,11.48
2019-05-02T11:56:35.999Z,12.00
2019-05-02T11:59:02.943Z,9.68
2019-05-02T12:01:37.391Z,9.45
2019-05-02T12:03:58.128Z,9.50
2019-05-02T12:06:24.679Z,8.15
2019-05-02T12:08:52.554Z,10.10
2019-05-02T12:11:19.399Z,11.03
2019-05-02T12:13:47.413Z,10.45
2019-05-02T12:16:15.162Z,11.93
2019-05-02T12:18:41.936Z,11.18
2019-05-02T12:21:08.372Z,11.57
2019-05-02T12:23:36.306Z,11.80
2019-05-02T12:26:03.206Z,11.95
2019-05-02T12:28:29.808Z,10.18
2019-05-02T12:30:56.256Z,10.40
2019-05-02T12:33:24.560Z,10.08
2019-05-02T12:35:52.465Z,9.60
2019-05-02T12:38:19.075Z,8.30
2019-05-02T12:40:45.531Z,9.73
2019-05-02T12:43:12.194Z,8.73
2019-05-02T12:45:38.747Z,9.28
2019-05-02T12:48:05.215Z,8.90
2019-05-02T12:50:32.210Z,8.50
2019-05-02T12:52:58.623Z,8.68
2019-05-02T12:55:25.015Z,8.70
2019-05-02T12:57:52.354Z,9.08
2019-05-02T13:00:19.478Z,8.60
2019-05-02T13:02:47.826Z,8.40
2019-05-02T13:05:14.289Z,9.28
2019-05-02T13:07:42.786Z,9.00
2019-05-02T13:10:11.823Z,8.78
2019-05-02T13:12:41.756Z,10.10
2019-05-02T13:15:08.479Z,9.50
2019-05-02T13:17:42.530Z,8.83
2019-05-02T13:20:04.654Z,9.55
2019-05-02T13:22:33.055Z,9.50
2019-05-02T13:25:02.211Z,9.23
2019-05-02T13:27:32.261Z,9.30
2019-05-02T13:29:57.360Z,8.35
2019-05-02T13:32:25.715Z,9.33
2019-05-02T13:34:57.081Z,9.05
2019-05-02T13:37:23.655Z,8.63
2019-05-02T13:39:53.052Z,9.13
2019-05-02T13:42:19.512Z,9.00
2019-05-02T13:44:47.907Z,9.25
2019-05-02T13:47:18.088Z,8.98
2019-05-02T13:49:53.210Z,9.43
2019-05-02T13:52:12.900Z,8.63
2019-05-02T13:54:39.477Z,9.78
2019-05-02T13:57:05.925Z,10.00
2019-05-02T13:59:33.745Z,8.98
2019-05-02T14:02:02.588Z,9.88
2019-05-02T14:04:28.922Z,10.32
2019-05-02T14:06:55.274Z,10.23
2019-05-02T14:09:23.523Z,8.45
2019-05-02T14:11:52.633Z,8.35
2019-05-02T14:14:19.076Z,9.15
2019-05-02T14:16:45.547Z,8.95
2019-05-02T14:19:12.611Z,8.55
2019-05-02T14:21:42.140Z,8.03
2019-05-02T14:24:08.747Z,7.67
2019-05-02T14:26:35.107Z,8.95
2019-05-02T14:29:02.586Z,7.90
2019-05-02T14:31:29.222Z,8.70
2019-05-02T14:33:57.556Z,7.95
2019-05-02T14:36:23.939Z,10.03
2019-05-02T14:38:52.420Z,8.33
2019-05-02T14:41:21.799Z,9.08
2019-05-02T14:43:48.872Z,9.20
2019-05-02T14:46:17.743Z,9.85
2019-05-02T14:48:45.185Z,10.72
2019-05-02T14:51:12.006Z,11.68
2019-05-02T14:53:38.479Z,11.43
2019-05-02T14:56:06.735Z,11.00
2019-05-02T14:58:37.661Z,10.38
2019-05-02T15:01:02.858Z,10.13
2019-05-02T15:03:29.479Z,10.78
2019-05-02T15:05:58.979Z,12.35
2019-05-02T15:08:24.300Z,11.22
2019-05-02T15:10:56.042Z,11.63
2019-05-02T15:13:19.020Z,10.23
2019-05-02T15:15:46.242Z,10.58
2019-05-02T15:18:17.409Z,10.30
2019-05-02T15:20:42.408Z,10.25
2019-05-02T15:23:14.425Z,8.63
2019-05-02T15:25:37.321Z,9.63
2019-05-02T15:28:03.822Z,9.10
2019-05-02T15:30:30.403Z,9.65
2019-05-02T15:32:58.697Z,9.83
2019-05-02T15:35:27.142Z,9.48
2019-05-02T15:37:56.666Z,9.83
2019-05-02T15:42:52.071Z,10.58
2019-05-02T15:45:20.456Z,9.85
2019-05-02T15:47:47.405Z,9.83
2019-05-02T15:50:14.736Z,10.38
2019-05-02T15:52:44.338Z,11.05
2019-05-02T15:55:11.590Z,11.22
2019-05-02T15:57:43.617Z,13.25
2019-05-02T16:00:10.329Z,11.65
2019-05-02T16:02:36.682Z,11.90
2019-05-02T16:05:05.536Z,12.18
2019-05-02T16:07:32.641Z,12.60
2019-05-02T16:10:01.189Z,11.78
2019-05-02T16:12:31.970Z,13.13
2019-05-02T16:14:55.891Z,13.30
2019-05-02T16:17:25.636Z,13.98
2019-05-02T16:19:58.226Z,13.45
2019-05-02T16:22:23.087Z,14.15
2019-05-02T16:24:51.025Z,15.08
2019-05-02T16:27:21.962Z,15.15
2019-05-02T16:29:46.031Z,16.27
2019-05-02T16:32:15.388Z,14.87
2019-05-02T16:34:43.785Z,14.23
2019-05-02T16:37:13.520Z,15.13
2019-05-02T16:39:42.560Z,14.25
2019-05-02T16:42:08.073Z,16.70
2019-05-02T16:44:34.464Z,14.58
2019-05-02T16:47:02.226Z,15.58
2019-05-02T16:49:32.181Z,14.33
2019-05-02T16:52:05.035Z,13.88
2019-05-02T16:54:27.350Z,13.70
2019-05-02T16:56:53.823Z,14.35
2019-05-02T16:59:21.483Z,12.88
2019-05-02T17:01:48.538Z,12.90
2019-05-02T17:04:14.917Z,13.68
2019-05-02T17:06:42.625Z,15.53
2019-05-02T17:09:11.920Z,13.72
2019-05-02T17:11:41.975Z,14.95
2019-05-02T17:14:12.100Z,15.68
2019-05-02T17:16:36.761Z,15.15
2019-05-02T17:19:03.215Z,15.43
2019-05-02T17:21:32.277Z,16.37
2019-05-02T17:23:58.041Z,15.63
2019-05-02T17:26:24.406Z,15.20
2019-05-02T17:28:52.084Z,15.23
2019-05-02T17:31:20.486Z,15.63
2019-05-02T17:33:51.112Z,17.12
2019-05-02T17:36:15.171Z,15.20
2019-05-02T17:38:41.886Z,15.75
2019-05-02T17:41:08.615Z,15.80
2019-05-02T17:43:37.389Z,15.80
2019-05-02T17:46:04.284Z,14.45
2019-05-02T17:48:34.231Z,16.57
2019-05-02T17:51:02.352Z,15.03
2019-05-02T17:53:33.557Z,14.23
2019-05-02T17:55:57.325Z,14.50
2019-05-02T17:58:23.869Z,14.07
2019-05-02T18:00:56.110Z,14.80
2019-05-02T18:03:24.252Z,15.05
2019-05-02T18:05:49.137Z,15.78
2019-05-02T18:08:15.666Z,15.15
2019-05-02T18:10:42.290Z,15.53
2019-05-02T18:13:08.837Z,16.00
2019-05-02T18:15:36.324Z,15.98
2019-05-02T18:18:06.534Z,14.93
2019-05-02T18:20:32.513Z,14.45
2019-05-02T18:22:59.125Z,14.23
2019-05-02T18:25:25.668Z,15.03
2019-05-02T18:27:52.127Z,14.25
2019-05-02T18:30:25.009Z,14.23
2019-05-02T18:32:48.275Z,14.40
2019-05-02T18:35:14.974Z,13.93
2019-05-02T18:37:42.817Z,14.25
2019-05-02T18:40:11.922Z,14.50
2019-05-02T18:42:38.587Z,14.75
2019-05-02T18:45:07.027Z,15.03
2019-05-02T18:47:33.589Z,16.12
2019-05-02T18:50:01.817Z,14.00
2019-05-02T18:52:36.312Z,14.47
2019-05-02T18:54:56.980Z,13.93
2019-05-02T18:57:25.905Z,14.65
2019-05-02T18:59:56.367Z,13.50
2019-05-02T19:02:21.593Z,14.63
2019-05-02T19:04:48.278Z,15.18
2019-05-02T19:07:15.910Z,14.93
2019-05-02T19:09:50.864Z,14.43
2019-05-02T19:12:19.709Z,14.93
2019-05-02T19:14:39.157Z,15.48
2019-05-02T19:17:07.277Z,16.87
2019-05-02T19:19:36.834Z,17.25
2019-05-02T19:22:02.696Z,17.52
2019-05-02T19:24:32.883Z,16.17
2019-05-02T19:26:59.131Z,14.63
2019-05-02T19:29:27.204Z,16.37
2019-05-02T19:31:53.880Z,15.80
2019-05-02T19:34:22.808Z,15.90
2019-05-02T19:36:48.757Z,16.83
2019-05-02T19:39:15.230Z,16.12
2019-05-02T19:41:44.117Z,15.55
2019-05-02T19:44:10.219Z,16.23
2019-05-02T19:46:38.833Z,17.00
2019-05-02T19:49:06.860Z,15.78
2019-05-02T19:51:33.840Z,15.68
2019-05-02T19:54:01.853Z,15.05
2019-05-02T19:56:33.433Z,15.08
2019-05-02T19:58:57.135Z,14.28
2019-05-02T20:01:26.569Z,14.37
2019-05-02T20:03:56.720Z,15.20
2019-05-02T20:06:22.078Z,15.97
2019-05-02T20:08:48.715Z,15.37
2019-05-02T20:11:15.079Z,16.20
2019-05-02T20:13:41.531Z,16.70
2019-05-02T20:16:11.819Z,15.83
2019-05-02T20:18:43.996Z,16.47
2019-05-02T20:21:12.136Z,16.60
2019-05-02T20:23:37.576Z,16.63
2019-05-02T20:26:04.355Z,16.40
2019-05-02T20:28:31.747Z,17.17
2019-05-02T20:30:58.315Z,15.17
2019-05-02T20:33:24.768Z,16.23
2019-05-02T20:35:52.801Z,15.93
2019-05-02T20:38:19.483Z,16.53
2019-05-02T20:40:45.972Z,15.80
2019-05-02T20:43:12.319Z,16.03
2019-05-02T20:45:38.789Z,15.93
2019-05-02T20:48:05.331Z,15.17
2019-05-02T20:50:31.977Z,14.97
2019-05-02T20:52:58.454Z,14.73
2019-05-02T20:55:25.019Z,16.10
2019-05-02T20:57:52.721Z,15.53
2019-05-02T21:00:23.382Z,15.20
2019-05-02T21:02:49.610Z,14.27
2019-05-02T21:05:17.895Z,16.60
2019-05-02T21:07:46.311Z,16.47
2019-05-02T21:10:14.835Z,16.13
2019-05-02T21:12:41.923Z,15.73
2019-05-02T21:15:08.744Z,15.10
2019-05-02T21:17:35.188Z,13.97
2019-05-02T21:20:02.682Z,15.17
2019-05-02T21:22:29.160Z,14.70
2019-05-02T21:24:55.620Z,15.43
2019-05-02T21:27:22.119Z,15.60
2019-05-02T21:29:48.564Z,15.43
2019-05-02T21:32:15.144Z,15.73
2019-05-02T21:34:42.503Z,15.20
2019-05-02T21:37:09.167Z,14.90
2019-05-02T21:39:35.540Z,14.97
2019-05-02T21:42:02.403Z,15.20
2019-05-02T21:44:28.972Z,15.10
2019-05-02T21:46:55.532Z,15.83
2019-05-02T21:49:23.881Z,15.40
2019-05-02T21:51:52.259Z,16.40
2019-05-02T21:54:22.544Z,16.07
2019-05-02T21:56:52.229Z,15.57
2019-05-02T21:59:18.859Z,15.47
2019-05-02T22:01:48.706Z,15.67
2019-05-02T22:04:15.167Z,16.27
2019-05-02T22:06:42.738Z,15.70
2019-05-02T22:09:09.623Z,14.50
2019-05-02T22:11:36.605Z,14.90
2019-05-02T22:14:03.647Z,14.10
2019-05-02T22:16:30.116Z,15.30
2019-05-02T22:18:56.467Z,15.43
2019-05-02T22:21:22.921Z,17.13
2019-05-02T22:23:49.287Z,15.87
2019-05-02T22:26:15.731Z,16.13
2019-05-02T22:28:42.119Z,15.90
2019-05-02T22:31:08.573Z,16.20
2019-05-02T22:33:35.134Z,16.67
2019-05-02T22:36:01.913Z,16.07
2019-05-02T22:38:31.783Z,18.13
2019-05-02T22:40:58.760Z,17.90
2019-05-02T22:43:25.323Z,17.60
2019-05-02T22:45:51.689Z,17.20
2019-05-02T22:48:18.179Z,19.27
2019-05-02T22:50:45.428Z,18.67
2019-05-02T22:53:12.001Z,19.60
2019-05-02T22:55:40.156Z,19.73
2019-05-02T22:58:06.623Z,20.37
2019-05-02T23:00:33.175Z,20.77
2019-05-02T23:03:01.800Z,20.10
2019-05-02T23:05:27.991Z,21.57
2019-05-02T23:07:54.559Z,21.90
2019-05-02T23:10:22.046Z,20.97
2019-05-02T23:12:48.619Z,22.13
2019-05-02T23:15:15.100Z,23.13
2019-05-02T23:17:42.789Z,22.57
2019-05-02T23:20:09.326Z,22.63
2019-05-02T23:22:35.799Z,22.67
2019-05-02T23:25:05.053Z,23.93
2019-05-02T23:27:33.488Z,23.57
2019-05-02T23:29:59.931Z,25.67
2019-05-02T23:32:26.484Z,22.90
2019-05-02T23:34:52.959Z,21.80
2019-05-02T23:37:19.406Z,24.70
2019-05-02T23:39:45.773Z,24.53
2019-05-02T23:42:13.500Z,23.03
2019-05-02T23:44:40.112Z,23.77
2019-05-02T23:47:06.554Z,25.07
2019-05-02T23:49:32.919Z,24.07
2019-05-02T23:51:59.371Z,25.67
2019-05-02T23:54:25.934Z,25.73
2019-05-02T23:56:52.287Z,24.57
2019-05-02T23:59:18.659Z,27.17
